Time;durP1;ratioP1;P1;durP2;ratioP2;P2;SDS_P1;SDS_P2;PMS_P1;PMS_P2;Temp;Humidity;BMP_temperature;BMP_pressure;BME280_temperature;BME280_humidity;BME280_pressure;Samples;Min_cycle;Max_cycle;Signal;HPM_P1;HPM_P2
2021/06/01 00:01:35;;;;;;;17.60;15.77;;;;;;;17.71;51.74;101800.69;5041648;28;20408;-66
2021/06/01 00:04:01;;;;;;;17.20;15.30;;;;;;;17.45;52.48;101789.31;5049102;28;20190;-66
2021/06/01 00:06:26;;;;;;;22.57;19.20;;;;;;;17.66;52.44;101784.88;5041379;28;20423;-66
2021/06/01 00:08:53;;;;;;;13.87;12.47;;;;;;;17.46;52.50;101788.44;5041812;28;20522;-68
2021/06/01 00:11:18;;;;;;;14.37;11.90;;;;;;;17.53;52.29;101788.44;5040635;28;20513;-65
2021/06/01 00:13:44;;;;;;;12.80;11.50;;;;;;;17.42;52.57;101791.97;5042733;28;20446;-65
2021/06/01 00:16:11;;;;;;;15.33;13.70;;;;;;;17.35;53.04;101795.50;5041386;28;20186;-66
2021/06/01 00:18:36;;;;;;;15.27;13.67;;;;;;;17.42;52.82;101791.97;5041093;28;20174;-66
2021/06/01 00:21:04;;;;;;;16.63;13.33;;;;;;;17.37;52.80;101796.34;5044066;28;20439;-66
2021/06/01 00:23:30;;;;;;;14.70;13.17;;;;;;;17.39;52.96;101799.03;5041463;28;20178;-66
2021/06/01 00:25:55;;;;;;;17.20;15.53;;;;;;;17.42;52.89;101796.38;5046715;28;20454;-66
2021/06/01 00:28:20;;;;;;;20.03;16.57;;;;;;;17.60;52.40;101791.06;5049200;28;20194;-66
2021/06/01 00:30:46;;;;;;;17.70;15.90;;;;;;;17.52;52.81;101792.81;5042192;28;20174;-66
2021/06/01 00:33:11;;;;;;;19.30;17.03;;;;;;;17.61;52.56;101787.50;5040601;28;20264;-65
2021/06/01 00:35:37;;;;;;;20.87;17.90;;;;;;;16.75;54.92;101796.38;5040685;28;20224;-66
2021/06/01 00:38:04;;;;;;;20.23;16.90;;;;;;;17.05;53.70;101792.00;5042570;28;20186;-66
2021/06/01 00:40:29;;;;;;;13.77;12.47;;;;;;;17.25;53.38;101789.38;5041435;28;20420;-65
2021/06/01 00:42:55;;;;;;;13.70;11.47;;;;;;;17.26;53.51;101795.50;5041705;28;20668;-65
2021/06/01 00:45:22;;;;;;;13.07;11.63;;;;;;;17.11;54.01;101792.00;5040370;28;20174;-65
2021/06/01 00:47:48;;;;;;;16.37;14.77;;;;;;;17.21;54.01;101782.34;5039698;28;20243;-65
2021/06/01 00:50:13;;;;;;;19.80;17.77;;;;;;;17.14;54.28;101786.75;5040394;28;20725;-65
2021/06/01 00:52:39;;;;;;;16.33;14.50;;;;;;;17.17;54.33;101781.47;5042985;28;20185;-66
2021/06/01 00:55:06;;;;;;;17.57;14.77;;;;;;;17.11;54.70;101786.72;5040199;28;20790;-67
2021/06/01 00:57:31;;;;;;;15.20;13.60;;;;;;;17.06;54.57;101783.25;5040712;28;20178;-66
2021/06/01 00:59:58;;;;;;;19.27;15.90;;;;;;;17.18;54.30;101771.78;5041112;28;20401;-66
2021/06/01 01:02:23;;;;;;;20.03;15.50;;;;;;;17.16;54.49;101778.84;5041640;28;20213;-66
2021/06/01 01:04:49;;;;;;;18.93;15.27;;;;;;;16.95;55.46;101774.44;5040133;28;20487;-66
2021/06/01 01:07:32;;;;;;;24.20;19.23;;;;;;;17.05;54.88;101775.31;5041376;28;20437;-67
2021/06/01 01:09:57;;;;;;;24.20;20.27;;;;;;;16.91;55.19;101772.69;5060523;28;20209;-67
2021/06/01 01:12:34;;;;;;;21.70;16.90;;;;;;;16.95;55.26;101782.34;5050525;28;20731;-66
2021/06/01 01:15:03;;;;;;;13.93;12.53;;;;;;;16.96;55.45;101786.75;5039553;28;20215;-66
2021/06/01 01:17:40;;;;;;;15.57;12.87;;;;;;;16.75;55.61;101793.75;5039962;28;20410;-66
2021/06/01 01:20:10;;;;;;;14.70;13.20;;;;;;;16.66;56.14;101791.09;5040009;28;20401;-65
2021/06/01 01:22:44;;;;;;;18.40;15.80;;;;;;;16.80;55.90;101781.44;5046021;28;20437;-66
2021/06/01 01:25:41;;;;;;;14.73;12.93;;;;;;;16.79;56.15;101779.69;5038550;28;20475;-66
2021/06/01 01:28:19;;;;;;;16.77;14.87;;;;;;;16.81;56.01;101783.19;5051969;28;20434;-66
2021/06/01 01:30:46;;;;;;;21.23;16.97;;;;;;;16.76;56.25;101784.94;5044093;28;20422;-66
2021/06/01 01:33:17;;;;;;;19.80;17.70;;;;;;;16.80;56.13;101786.69;5041420;28;20488;-66
2021/06/01 01:35:44;;;;;;;16.37;13.40;;;;;;;16.78;56.06;101784.97;5039658;28;20523;-66
2021/06/01 01:38:10;;;;;;;24.60;18.37;;;;;;;16.60;56.71;101793.69;5039552;28;20731;-66
2021/06/01 01:40:37;;;;;;;14.00;12.70;;;;;;;16.61;56.89;101791.06;5039654;28;20408;-66
2021/06/01 01:43:06;;;;;;;17.40;15.57;;;;;;;16.63;56.82;101786.69;5039811;28;20480;-66
2021/06/01 01:45:37;;;;;;;17.77;14.50;;;;;;;16.62;56.84;101781.44;5038729;28;20444;-66
2021/06/01 01:50:57;;;;;;;13.73;12.27;;;;;;;16.51;57.35;101786.69;5039490;28;20422;-65
2021/06/01 01:53:22;;;;;;;13.50;11.50;;;;;;;16.32;57.91;101783.13;5041912;28;20450;-66
2021/06/01 01:55:51;;;;;;;13.07;11.47;;;;;;;16.08;59.01;101783.94;5038791;28;20405;-66
2021/06/01 01:58:18;;;;;;;14.30;12.70;;;;;;;16.26;58.25;101793.63;5038657;28;20181;-66
2021/06/01 02:00:44;;;;;;;17.87;15.13;;;;;;;16.30;58.50;101784.88;5048573;28;20419;-66
2021/06/01 02:03:10;;;;;;;13.57;12.07;;;;;;;16.12;58.73;101786.56;5038680;28;20417;-66
2021/06/01 02:05:36;;;;;;;12.50;11.10;;;;;;;16.24;58.33;101783.09;5041505;28;20444;-66
2021/06/01 02:08:02;;;;;;;12.83;11.53;;;;;;;16.08;58.26;101778.66;5038899;28;20178;-66
2021/06/01 02:10:27;;;;;;;13.03;11.67;;;;;;;16.09;58.62;101772.53;5039152;28;20476;-66
2021/06/01 02:12:52;;;;;;;13.13;11.83;;;;;;;16.28;57.84;101769.09;5038966;28;20174;-65
2021/06/01 02:15:18;;;;;;;14.10;12.13;;;;;;;16.23;57.85;101773.44;5041006;28;20229;-65
2021/06/01 02:17:43;;;;;;;11.60;10.50;;;;;;;16.18;57.97;101764.66;5038950;28;20209;-66
2021/06/01 02:20:11;;;;;;;14.57;11.20;;;;;;;16.26;57.50;101767.31;5038929;28;20162;-66
2021/06/01 02:25:15;;;;;;;12.33;11.07;;;;;;;16.24;57.75;101774.34;5039653;28;20968;-66
2021/06/01 02:27:47;;;;;;;12.10;10.80;;;;;;;16.12;57.72;101781.31;5037976;28;20483;-67
2021/06/01 02:30:15;;;;;;;42.40;31.43;;;;;;;16.02;58.35;101778.63;5037870;28;20462;-66
2021/06/01 02:32:52;;;;;;;17.60;14.30;;;;;;;15.74;59.18;101783.75;5037733;28;20407;-66
2021/06/01 02:35:20;;;;;;;13.23;10.97;;;;;;;15.83;58.91;101778.59;5040249;28;20451;-66
2021/06/01 02:37:47;;;;;;;12.10;10.80;;;;;;;15.77;58.97;101776.75;5038378;28;20503;-65
2021/06/01 02:40:15;;;;;;;12.73;11.43;;;;;;;15.87;58.88;101780.34;5038271;28;20413;-67
2021/06/01 02:42:41;;;;;;;11.60;10.33;;;;;;;15.96;58.44;101787.38;5037986;28;20486;-65
2021/06/01 02:45:08;;;;;;;12.23;10.50;;;;;;;15.96;58.41;101783.00;5040024;28;20452;-65
2021/06/01 02:47:34;;;;;;;12.50;11.00;;;;;;;15.78;58.84;101778.50;5037830;28;20437;-66
2021/06/01 02:50:02;;;;;;;15.20;11.27;;;;;;;15.80;58.84;101776.81;5038116;28;20479;-65
2021/06/01 02:52:28;;;;;;;17.83;12.47;;;;;;;15.85;58.61;101781.22;5038354;28;20280;-65
2021/06/01 02:54:53;;;;;;;14.57;11.10;;;;;;;15.83;58.54;101784.72;5046496;28;20850;-66
2021/06/01 02:57:19;;;;;;;13.90;12.30;;;;;;;15.65;58.97;101782.84;5043683;28;20544;-66
2021/06/01 02:59:45;;;;;;;13.13;11.83;;;;;;;15.74;59.01;101771.47;5038324;28;20185;-65
2021/06/01 03:02:10;;;;;;;15.37;11.40;;;;;;;15.73;58.74;101767.09;5037939;28;20436;-65
2021/06/01 03:04:35;;;;;;;15.90;11.60;;;;;;;15.60;59.63;101755.66;5039839;28;20543;-66
2021/06/01 03:07:01;;;;;;;14.13;11.90;;;;;;;15.78;58.92;101757.47;5038447;28;20202;-65
2021/06/01 03:09:26;;;;;;;12.23;10.87;;;;;;;15.78;59.07;101765.38;5053320;28;20220;-65
2021/06/01 03:11:52;;;;;;;16.17;11.97;;;;;;;15.52;59.79;101764.34;5037133;28;20425;-65
2021/06/01 03:14:19;;;;;;;13.73;11.20;;;;;;;15.66;59.30;101768.81;5039329;28;20213;-66
2021/06/01 03:16:44;;;;;;;13.00;11.60;;;;;;;15.82;58.83;101761.03;5037650;28;20451;-65
2021/06/01 03:19:09;;;;;;;28.03;17.43;;;;;;;15.77;58.61;101763.59;5038019;28;20417;-65
2021/06/01 03:21:35;;;;;;;19.57;15.67;;;;;;;15.77;58.74;101760.97;5041316;28;20460;-65
2021/06/01 03:24:01;;;;;;;18.03;11.73;;;;;;;15.75;58.64;101761.84;5050734;28;20177;-65
2021/06/01 03:26:26;;;;;;;13.67;11.77;;;;;;;15.81;59.21;101762.78;5041947;28;20495;-65
2021/06/01 03:28:52;;;;;;;12.30;11.00;;;;;;;16.17;58.10;101760.28;5042173;28;20332;-66
2021/06/01 03:31:17;;;;;;;12.50;10.97;;;;;;;16.05;58.10;101758.50;5041699;28;20540;-66
2021/06/01 03:33:43;;;;;;;13.17;11.70;;;;;;;16.11;58.10;101750.59;5042433;28;20201;-66
2021/06/01 03:36:08;;;;;;;17.40;15.17;;;;;;;16.14;57.74;101750.63;5043391;28;20562;-66
2021/06/01 03:38:36;;;;;;;16.63;14.63;;;;;;;16.09;57.30;101747.09;5046518;28;20504;-66
2021/06/01 03:41:01;;;;;;;12.23;11.00;;;;;;;15.89;58.54;101740.91;5061540;28;20211;-66
2021/06/01 03:43:27;;;;;;;14.13;11.37;;;;;;;15.98;58.59;101743.56;5047738;28;20475;-68
2021/06/01 03:45:52;;;;;;;12.73;11.43;;;;;;;16.11;58.27;101734.81;5057973;28;20267;-65
2021/06/01 03:48:17;;;;;;;13.70;11.57;;;;;;;16.22;58.15;101733.97;5061683;28;20174;-65
2021/06/01 03:50:43;;;;;;;15.90;11.70;;;;;;;15.94;58.77;101744.41;5045531;28;20297;-65
2021/06/01 03:53:08;;;;;;;12.23;10.80;;;;;;;16.29;57.83;101741.00;5041492;28;20174;-65
2021/06/01 03:55:34;;;;;;;12.20;10.90;;;;;;;16.43;57.50;101739.28;5041491;28;20182;-67
2021/06/01 03:57:59;;;;;;;11.87;10.67;;;;;;;16.47;57.23;101729.66;5042478;28;20174;-65
2021/06/01 04:00:28;;;;;;;15.40;13.03;;;;;;;16.79;56.50;101736.66;5045241;28;20185;-65
2021/06/01 04:02:54;;;;;;;14.47;12.00;;;;;;;16.72;56.77;101734.91;5041320;28;20547;-65
2021/06/01 04:05:19;;;;;;;14.80;12.00;;;;;;;16.97;55.98;101738.47;5041969;28;20440;-65
2021/06/01 04:07:45;;;;;;;14.27;11.00;;;;;;;16.89;56.41;101737.56;5041244;28;20236;-65
2021/06/01 04:10:11;;;;;;;16.17;13.57;;;;;;;17.01;55.76;101737.56;5042124;28;20255;-65
2021/06/01 04:12:36;;;;;;;31.37;23.20;;;;;;;17.06;55.15;101735.81;5060831;28;20420;-66
2021/06/01 04:15:02;;;;;;;14.27;11.90;;;;;;;17.20;54.76;101726.97;5061000;28;20483;-66
2021/06/01 04:17:27;;;;;;;14.27;12.73;;;;;;;17.31;54.77;101725.22;5061211;28;20170;-66
2021/06/01 04:19:53;;;;;;;16.47;14.20;;;;;;;17.59;53.21;101738.31;5046256;28;20440;-65
2021/06/01 04:22:18;;;;;;;17.33;15.07;;;;;;;17.46;53.80;101740.13;5041249;28;20186;-66
2021/06/01 04:24:43;;;;;;;15.40;12.10;;;;;;;17.49;54.47;101737.47;5040920;28;20226;-65
2021/06/01 04:27:09;;;;;;;22.50;18.37;;;;;;;17.60;53.62;101737.44;5041241;28;20200;-66
2021/06/01 04:29:34;;;;;;;13.40;11.40;;;;;;;17.85;53.65;101738.22;5040533;28;20264;-65
2021/06/01 04:32:00;;;;;;;12.80;11.50;;;;;;;17.71;54.08;101732.13;5042014;28;20291;-65
2021/06/01 04:34:25;;;;;;;12.40;11.10;;;;;;;17.83;53.83;101734.69;5040387;28;20228;-65
2021/06/01 04:36:50;;;;;;;13.73;11.90;;;;;;;18.58;50.66;101728.13;5040201;28;20186;-65
2021/06/01 04:39:16;;;;;;;19.80;17.20;;;;;;;18.84;49.84;101733.16;5040791;28;20193;-65
2021/06/01 04:41:41;;;;;;;22.87;19.13;;;;;;;19.50;48.74;101718.44;5043089;28;20511;-65
2021/06/01 04:44:07;;;;;;;23.80;20.10;;;;;;;19.78;47.57;101714.56;5040700;28;20428;-65
2021/06/01 04:46:33;;;;;;;19.37;15.10;;;;;;;19.48;48.61;101722.88;5040691;28;20185;-66
2021/06/01 04:48:58;;;;;;;14.20;10.87;;;;;;;19.34;49.55;101717.72;5040929;28;20194;-66
2021/06/01 04:51:23;;;;;;;14.33;12.83;;;;;;;19.19;48.02;101718.75;5046445;28;20716;-65
2021/06/01 04:53:52;;;;;;;19.03;14.10;;;;;;;19.70;47.33;101717.31;5060691;28;20182;-65
2021/06/01 04:56:19;;;;;;;12.30;11.10;;;;;;;19.61;47.24;101720.06;5045904;28;20537;-66
2021/06/01 04:58:44;;;;;;;12.33;11.10;;;;;;;19.28;48.80;101724.84;5040311;28;20739;-66
2021/06/01 05:01:10;;;;;;;13.73;10.87;;;;;;;19.29;49.03;101722.19;5041632;28;20448;-67
2021/06/01 05:03:35;;;;;;;21.47;16.53;;;;;;;19.46;49.25;101732.56;5040914;28;20186;-69
2021/06/01 05:06:00;;;;;;;14.10;12.30;;;;;;;20.06;48.55;101723.03;5022867;28;20173;-70
2021/06/01 05:08:26;;;;;;;18.30;15.70;;;;;;;21.26;45.49;101724.63;5039835;28;20239;-66
2021/06/01 05:10:52;;;;;;;25.20;12.43;;;;;;;22.02;43.26;101721.28;5044024;28;20454;-68
2021/06/01 05:13:17;;;;;;;14.13;10.53;;;;;;;22.51;42.57;101719.28;5043528;28;20194;-68
2021/06/01 05:15:44;;;;;;;16.47;11.67;;;;;;;22.55;42.28;101718.28;5039811;28;20447;-68
2021/06/01 05:18:10;;;;;;;12.33;10.50;;;;;;;22.97;41.40;101723.41;5040288;28;20178;-66
2021/06/01 05:20:35;;;;;;;15.03;9.53;;;;;;;23.33;40.80;101720.69;5039903;28;20425;-66
2021/06/01 05:23:00;;;;;;;13.57;11.30;;;;;;;23.31;40.02;101716.34;5041328;28;20433;-67
2021/06/01 05:25:26;;;;;;;18.50;16.17;;;;;;;22.91;40.43;101720.94;5059564;28;20499;-67
2021/06/01 05:27:51;;;;;;;11.50;10.30;;;;;;;22.78;39.82;101722.16;5059579;28;20209;-67
2021/06/01 05:30:22;;;;;;;16.80;12.57;;;;;;;22.84;40.34;101716.66;5046929;28;20217;-65
2021/06/01 05:33:10;;;;;;;16.33;13.37;;;;;;;22.77;40.15;101718.66;5040475;28;20269;-67
2021/06/01 05:35:37;;;;;;;15.70;12.67;;;;;;;22.69;40.08;101717.94;5039527;28;20420;-65
2021/06/01 05:38:03;;;;;;;13.63;10.50;;;;;;;22.34;41.27;101725.88;5040460;28;20472;-66
2021/06/01 05:40:28;;;;;;;16.50;12.03;;;;;;;22.33;41.77;101717.94;5055160;28;20520;-66
2021/06/01 05:42:53;;;;;;;14.23;9.63;;;;;;;22.33;41.75;101715.28;5043442;28;20443;-66
2021/06/01 05:45:18;;;;;;;12.50;9.87;;;;;;;22.81;40.39;101712.34;5039167;28;20205;-66
2021/06/01 05:47:44;;;;;;;13.43;10.17;;;;;;;22.75;41.07;101706.31;5039334;28;20174;-66
2021/06/01 05:50:09;;;;;;;18.53;13.10;;;;;;;23.38;39.46;101705.47;5040195;28;20331;-69
2021/06/01 05:52:35;;;;;;;26.50;20.20;;;;;;;23.21;39.39;101713.94;5049573;28;20232;-68
2021/06/01 05:55:03;;;;;;;11.30;10.20;;;;;;;22.90;39.42;101711.19;5039182;28;20174;-68
2021/06/01 05:57:28;;;;;;;15.63;11.43;;;;;;;23.88;37.45;101709.34;5039580;28;20436;-68
2021/06/01 05:59:53;;;;;;;10.63;9.50;;;;;;;22.98;39.12;101713.66;5039087;28;20491;-69
2021/06/01 06:02:19;;;;;;;16.00;10.20;;;;;;;22.56;40.68;101713.88;5039087;28;20199;-67
2021/06/01 06:04:47;;;;;;;13.20;10.90;;;;;;;22.02;41.81;101718.63;5039810;28;20193;-68
2021/06/01 06:07:12;;;;;;;15.10;13.60;;;;;;;22.04;42.46;101719.47;5040170;28;20276;-67
2021/06/01 06:09:38;;;;;;;10.97;9.87;;;;;;;21.81;43.33;101723.53;5040678;28;20983;-68
2021/06/01 06:12:03;;;;;;;14.27;12.40;;;;;;;22.85;41.06;101715.75;5044873;28;20210;-68
2021/06/01 06:14:28;;;;;;;18.33;12.33;;;;;;;24.55;37.48;101711.66;5038375;28;20190;-68
2021/06/01 06:16:56;;;;;;;19.93;10.37;;;;;;;24.80;34.88;101712.66;5038889;28;20174;-68
2021/06/01 06:19:21;;;;;;;12.60;9.90;;;;;;;25.10;34.21;101705.38;5042635;28;20174;-68
2021/06/01 06:21:46;;;;;;;15.10;9.40;;;;;;;26.09;32.41;101709.69;5045457;28;20471;-68
2021/06/01 06:24:11;;;;;;;19.87;10.17;;;;;;;26.53;32.14;101704.34;5038289;28;20436;-68
2021/06/01 06:26:37;;;;;;;13.30;9.40;;;;;;;26.56;31.29;101711.31;5038753;28;20201;-68
2021/06/01 06:29:03;;;;;;;17.53;10.17;;;;;;;27.01;29.75;101712.13;5038580;28;20198;-68
2021/06/01 06:31:29;;;;;;;15.47;8.47;;;;;;;25.66;32.15;101711.34;5055558;28;20209;-68
2021/06/01 06:33:54;;;;;;;10.37;7.33;;;;;;;26.70;29.35;101713.44;5049271;28;20439;-68
2021/06/01 06:36:20;;;;;;;13.73;7.83;;;;;;;26.38;30.03;101711.19;5061340;28;20189;-67
2021/06/01 06:38:47;;;;;;;8.53;7.07;;;;;;;26.39;30.29;101715.56;5043751;28;20190;-69
2021/06/01 06:41:14;;;;;;;6.60;6.00;;;;;;;26.12;28.82;101709.56;5051067;28;20180;-68
2021/06/01 06:43:44;;;;;;;6.67;5.97;;;;;;;26.89;27.58;101709.03;5041977;28;20498;-68
2021/06/01 06:46:16;;;;;;;9.00;6.43;;;;;;;26.84;27.25;101705.69;5050889;28;20432;-69
2021/06/01 06:48:41;;;;;;;6.77;5.50;;;;;;;25.17;27.14;101704.22;5040391;28;20715;-68
2021/06/01 06:51:12;;;;;;;7.33;5.27;;;;;;;26.40;24.79;101705.78;5075624;28;20445;-68
2021/06/01 06:53:46;;;;;;;6.43;5.13;;;;;;;26.47;23.24;101701.91;5046582;28;20183;-69
2021/06/01 06:56:11;;;;;;;5.50;4.63;;;;;;;27.41;22.31;101706.81;5051607;28;20454;-68
2021/06/01 06:58:37;;;;;;;6.03;5.43;;;;;;;28.01;21.63;101704.88;5046111;28;20830;-69
2021/06/01 07:01:02;;;;;;;5.57;5.07;;;;;;;27.77;22.15;101711.41;5055757;28;20174;-68
2021/06/01 07:03:27;;;;;;;5.57;5.07;;;;;;;27.65;22.04;101702.97;5049034;28;20204;-69
2021/06/01 07:05:53;;;;;;;4.90;4.40;;;;;;;27.89;21.15;101709.00;5051866;28;20196;-70
2021/06/01 07:08:18;;;;;;;4.50;4.10;;;;;;;27.70;19.98;101700.97;5061895;28;20174;-68
2021/06/01 07:10:43;;;;;;;6.47;4.40;;;;;;;27.54;21.20;101706.16;5048733;28;20610;-69
2021/06/01 07:13:12;;;;;;;5.07;4.60;;;;;;;28.25;20.03;101701.94;5047378;28;20304;-69
2021/06/01 07:15:48;;;;;;;11.20;5.10;;;;;;;28.95;19.67;101703.81;5042302;28;20193;-69
2021/06/01 07:18:14;;;;;;;5.90;4.00;;;;;;;28.96;19.92;101701.03;5036759;28;20456;-69
2021/06/01 07:20:39;;;;;;;5.53;4.00;;;;;;;28.69;20.78;101701.53;5049954;28;20438;-69
2021/06/01 07:23:05;;;;;;;5.17;4.10;;;;;;;28.42;20.53;101703.78;5042589;28;20706;-68
2021/06/01 07:25:31;;;;;;;6.57;4.50;;;;;;;29.33;20.23;101701.75;5052195;28;20332;-68
2021/06/01 07:27:56;;;;;;;6.90;6.30;;;;;;;28.25;19.80;101701.94;5050841;28;20174;-68
2021/06/01 07:30:22;;;;;;;4.80;4.30;;;;;;;28.44;19.78;101693.81;5043424;28;20930;-68
2021/06/01 07:32:47;;;;;;;4.50;3.80;;;;;;;28.70;19.85;101705.09;5040180;28;20448;-68
2021/06/01 07:35:15;;;;;;;4.43;4.03;;;;;;;28.62;19.57;101701.88;5044822;28;20186;-68
2021/06/01 07:37:40;;;;;;;5.17;4.30;;;;;;;28.87;18.92;101709.56;5041418;28;20162;-68
2021/06/01 07:40:06;;;;;;;4.80;3.93;;;;;;;27.86;18.94;101705.56;5055312;28;20863;-68
2021/06/01 07:42:31;;;;;;;4.53;4.13;;;;;;;28.01;19.07;101701.31;5053617;28;20177;-68
2021/06/01 07:44:57;;;;;;;7.50;3.90;;;;;;;27.58;19.68;101706.91;5037965;28;20452;-68
2021/06/01 07:47:22;;;;;;;4.00;3.70;;;;;;;28.24;18.64;101700.22;5059803;28;20189;-70
2021/06/01 07:49:48;;;;;;;4.73;4.27;;;;;;;27.79;19.42;101690.75;5076696;28;20513;-69
2021/06/01 07:52:13;;;;;;;4.27;3.97;;;;;;;27.59;19.35;101694.38;5059014;28;20197;-68
2021/06/01 07:54:38;;;;;;;4.60;4.20;;;;;;;26.73;21.14;101697.28;5043059;28;20197;-68
2021/06/01 07:57:05;;;;;;;4.77;4.33;;;;;;;26.79;19.58;101694.34;5038112;28;20181;-68
2021/06/01 07:59:30;;;;;;;4.50;4.10;;;;;;;26.39;19.79;101693.34;5053040;28;20184;-69
2021/06/01 08:01:55;;;;;;;4.20;3.77;;;;;;;27.63;18.68;101688.81;5050655;28;20470;-68
2021/06/01 08:04:20;;;;;;;4.50;4.13;;;;;;;27.23;22.12;101686.13;5055340;28;20485;-68
2021/06/01 08:06:46;;;;;;;5.03;4.40;;;;;;;26.37;21.55;101684.50;5058935;28;20581;-69
2021/06/01 08:09:11;;;;;;;8.70;4.33;;;;;;;26.99;20.50;101690.78;5050901;28;20218;-69
2021/06/01 08:11:37;;;;;;;4.53;4.13;;;;;;;27.02;20.37;101681.72;5052534;28;20243;-68
2021/06/01 08:14:02;;;;;;;5.80;4.50;;;;;;;27.09;19.91;101682.34;5048139;28;20220;-68
2021/06/01 08:16:29;;;;;;;6.47;4.53;;;;;;;27.05;20.18;101681.63;5053567;28;20196;-67
2021/06/01 08:24:23;;;;;;;6.27;4.70;;;;;;;26.65;21.97;101699.38;5055493;28;20529;-68
2021/06/01 08:26:49;;;;;;;5.03;4.63;;;;;;;26.37;22.32;101689.84;5051570;28;20460;-69
2021/06/01 08:29:15;;;;;;;5.13;4.60;;;;;;;26.87;22.56;101689.53;5039722;28;20512;-68
2021/06/01 08:31:41;;;;;;;5.10;4.60;;;;;;;26.95;21.57;101685.63;5040977;28;20190;-68
2021/06/01 08:34:06;;;;;;;8.07;4.93;;;;;;;25.65;23.24;101677.56;5040411;28;20224;-68
2021/06/01 08:36:32;;;;;;;5.00;4.60;;;;;;;26.19;22.97;101681.66;5039903;28;20837;-70
2021/06/01 08:38:57;;;;;;;5.20;4.70;;;;;;;26.29;22.99;101671.47;5050427;28;20247;-69
2021/06/01 08:41:23;;;;;;;8.53;4.67;;;;;;;27.02;22.86;101673.72;5051497;28;20269;-68
2021/06/01 08:43:51;;;;;;;6.63;4.77;;;;;;;25.72;23.33;101679.06;5040528;28;20221;-68
2021/06/01 08:46:21;;;;;;;5.17;4.70;;;;;;;25.85;22.88;101672.28;5045295;28;20195;-67
2021/06/01 08:48:46;;;;;;;5.27;4.77;;;;;;;27.03;22.15;101659.41;5040563;28;20523;-68
2021/06/01 08:51:12;;;;;;;5.80;4.60;;;;;;;26.80;22.18;101669.31;5039998;28;20794;-70
2021/06/01 08:53:37;;;;;;;7.47;4.50;;;;;;;26.23;22.33;101661.88;5052030;28;20189;-68
2021/06/01 08:56:03;;;;;;;7.23;4.73;;;;;;;26.44;22.58;101661.94;5054083;28;20276;-69
2021/06/01 08:58:28;;;;;;;7.53;4.70;;;;;;;28.31;21.28;101656.03;5045662;28;20185;-68
2021/06/01 09:00:54;;;;;;;6.93;4.57;;;;;;;28.21;20.32;101652.06;5045738;28;20826;-68
2021/06/01 09:03:23;;;;;;;5.07;4.60;;;;;;;27.76;21.91;101659.59;5055005;28;20596;-68
2021/06/01 09:06:02;;;;;;;6.30;4.47;;;;;;;27.75;21.21;101657.84;5040312;28;20167;-68
2021/06/01 09:08:52;;;;;;;7.73;5.17;;;;;;;28.75;20.02;101645.81;5057268;28;20432;-67
2021/06/01 09:22:31;;;;;;;5.10;4.60;;;;;;;29.83;19.65;101650.66;5040756;28;20462;-69
2021/06/01 09:25:01;;;;;;;5.20;4.70;;;;;;;28.93;20.94;101647.53;5039910;28;20579;-69
2021/06/01 09:27:30;;;;;;;8.33;5.57;;;;;;;29.02;21.04;101635.41;5039627;28;20718;-69
2021/06/01 09:29:55;;;;;;;8.60;5.37;;;;;;;28.68;22.00;101639.91;5039388;28;20940;-68
2021/06/01 09:32:22;;;;;;;6.80;6.13;;;;;;;29.49;19.82;101636.47;5039456;28;20550;-68
2021/06/01 09:34:54;;;;;;;6.27;5.73;;;;;;;30.20;19.97;101630.59;5049304;28;20177;-68
2021/06/01 09:37:28;;;;;;;7.70;5.40;;;;;;;30.29;19.81;101631.00;5044960;28;20822;-70
2021/06/01 09:40:10;;;;;;;6.60;5.60;;;;;;;30.19;19.86;101628.00;5039985;28;20830;-71
2021/06/01 09:42:42;;;;;;;6.30;5.80;;;;;;;30.37;19.99;101631.41;5045503;28;20464;-67
2021/06/01 09:45:14;;;;;;;6.07;5.33;;;;;;;30.33;19.20;101625.34;5052023;28;20495;-67
2021/06/01 09:47:41;;;;;;;6.17;5.50;;;;;;;29.48;20.17;101616.78;5048173;28;20440;-68
2021/06/01 09:50:13;;;;;;;6.93;5.30;;;;;;;29.81;19.88;101623.88;5038366;28;20889;-69
2021/06/01 09:52:49;;;;;;;6.23;5.60;;;;;;;31.04;19.35;101620.19;5039303;28;20440;-68
2021/06/01 09:55:22;;;;;;;5.40;5.00;;;;;;;30.24;19.49;101624.06;5041688;28;20443;-68
2021/06/01 09:57:47;;;;;;;7.13;4.70;;;;;;;30.55;19.58;101614.19;5050213;28;20447;-68
2021/06/01 10:00:16;;;;;;;5.00;4.50;;;;;;;30.94;20.00;101610.94;5049198;28;20472;-66
2021/06/01 10:02:43;;;;;;;4.77;4.37;;;;;;;32.12;18.85;101610.47;5042245;28;20194;-69
2021/06/01 10:05:14;;;;;;;5.20;4.70;;;;;;;31.22;18.84;101610.94;5038933;28;20429;-70
2021/06/01 10:07:42;;;;;;;5.50;5.00;;;;;;;32.84;18.17;101606.47;5038811;28;20437;-71
2021/06/01 10:10:17;;;;;;;5.07;4.50;;;;;;;31.91;19.01;101608.25;5058697;28;20428;-71
2021/06/01 10:12:49;;;;;;;4.60;4.20;;;;;;;31.86;18.37;101604.16;5052588;28;20664;-70
2021/06/01 10:15:16;;;;;;;7.80;4.07;;;;;;;32.64;18.12;101594.34;5052257;28;20454;-70
2021/06/01 10:17:42;;;;;;;4.43;4.00;;;;;;;31.28;19.59;101592.66;5057997;28;20702;-70
2021/06/01 10:20:08;;;;;;;5.63;4.47;;;;;;;32.62;18.12;101591.78;5045238;28;20484;-68
2021/06/01 10:22:34;;;;;;;5.13;4.63;;;;;;;31.16;19.83;101602.38;5043270;28;20186;-70
2021/06/01 10:25:00;;;;;;;5.67;5.13;;;;;;;32.20;19.71;101581.16;5039583;28;20576;-68
2021/06/01 10:27:26;;;;;;;5.27;4.77;;;;;;;32.48;19.10;101587.34;5056330;28;20955;-70
2021/06/01 10:29:52;;;;;;;5.30;4.90;;;;;;;30.99;20.62;101587.28;5046956;28;20179;-69
2021/06/01 10:32:17;;;;;;;5.20;4.80;;;;;;;31.29;20.61;101584.47;5048664;28;20450;-68
2021/06/01 10:34:43;;;;;;;6.77;5.30;;;;;;;31.83;19.64;101578.25;5052957;28;20435;-70
2021/06/01 10:42:46;;;;;;;9.03;5.47;;;;;;;29.87;22.90;101588.59;5038279;28;20427;-63
2021/06/01 10:53:18;;;;;;;9.17;7.50;;;;;;;30.38;22.63;101571.28;5045278;28;20549;-63
2021/06/01 10:55:52;;;;;;;9.80;7.30;;;;;;;30.23;23.83;101567.69;5038051;28;20436;-63
2021/06/01 10:58:21;;;;;;;7.13;5.80;;;;;;;30.22;22.95;101568.66;5047997;28;20512;-64
2021/06/01 11:03:17;;;;;;;5.70;5.13;;;;;;;28.60;25.07;101569.66;5049600;28;20545;-63
2021/06/01 11:05:55;;;;;;;10.23;5.53;;;;;;;29.64;23.45;101568.41;5041343;28;20185;-61
2021/06/01 11:08:42;;;;;;;6.80;5.90;;;;;;;30.91;22.50;101563.53;5054671;28;20420;-61
2021/06/01 11:11:24;;;;;;;5.93;5.40;;;;;;;30.14;22.45;101565.56;5051152;28;20704;-62
2021/06/01 11:13:50;;;;;;;7.23;5.07;;;;;;;29.70;23.32;101557.31;5037842;28;20452;-60
2021/06/01 11:16:15;;;;;;;6.40;5.33;;;;;;;29.20;23.54;101563.69;5048101;28;20852;-61
2021/06/01 11:18:45;;;;;;;6.67;5.70;;;;;;;29.50;23.66;101562.97;5045767;28;20178;-62
2021/06/01 11:21:19;;;;;;;8.73;5.77;;;;;;;28.69;24.78;101567.38;5056163;28;20201;-61
2021/06/01 11:35:39;;;;;;;7.40;6.70;;;;;;;28.24;25.96;101544.69;5039539;28;20452;-60
2021/06/01 11:38:20;;;;;;;6.37;5.83;;;;;;;28.59;25.57;101549.13;5037499;28;20440;-61
2021/06/01 11:43:32;;;;;;;6.87;5.80;;;;;;;27.36;27.48;101546.31;5052932;28;20532;-61
2021/06/01 11:46:22;;;;;;;6.77;6.13;;;;;;;28.44;26.64;101546.31;5047370;28;20498;-62
2021/06/01 11:51:21;;;;;;;7.20;6.00;;;;;;;28.27;26.93;101535.63;5041877;28;20783;-62
2021/06/01 11:53:53;;;;;;;7.07;6.00;;;;;;;27.10;28.02;101539.53;5047394;28;20845;-63
2021/06/01 11:56:44;;;;;;;6.83;5.97;;;;;;;27.67;27.13;101535.03;5041936;28;20499;-61
2021/06/01 12:02:09;;;;;;;7.17;5.97;;;;;;;27.78;27.46;101536.28;5050368;28;20490;-64
2021/06/01 12:20:52;;;;;;;6.93;6.33;;;;;;;28.12;26.98;101508.66;5052073;28;20479;-65
2021/06/01 12:23:30;;;;;;;7.60;6.80;;;;;;;28.00;27.11;101504.81;5054890;28;20462;-64
2021/06/01 12:31:56;;;;;;;7.30;6.47;;;;;;;27.24;28.56;101502.28;5040175;28;20435;-62
2021/06/01 12:34:39;;;;;;;7.87;6.03;;;;;;;28.28;27.26;101498.00;5042007;28;20440;-64
2021/06/01 12:42:42;;;;;;;7.93;6.43;;;;;;;28.26;27.19;101483.78;5076979;28;20434;-63
2021/06/01 13:05:44;;;;;;;6.50;5.90;;;;;;;28.64;25.40;101458.56;5040088;28;20448;-65